createdAt,value
2023-03-11T00:01:16.777Z,87.62316612623789
2023-03-11T00:04:17.235Z,87.96660396342811
2023-03-11T00:07:17.258Z,88.0486065633526
2023-03-11T00:11:16.313Z,88.11795330686049
2023-03-11T00:14:16.609Z,88.13405522528966
2023-03-11T00:17:16.674Z,87.92926552876922
2023-03-11T00:21:18.201Z,87.8026893860708
2023-03-11T00:24:16.658Z,87.70102296188415
2023-03-11T00:27:16.511Z,87.53882911461734
2023-03-11T00:31:16.223Z,88.10231444108659
2023-03-11T00:34:16.899Z,87.88684368567804
2023-03-11T00:37:16.537Z,87.70555042555435
2023-03-11T00:41:16.989Z,87.96653304744893
2023-03-11T00:44:17.175Z,88.19082296791241
2023-03-11T00:47:17.520Z,87.98868345338165
2023-03-11T00:51:16.978Z,88.06598430838035
2023-03-11T00:54:17.098Z,88.00617025378378
2023-03-11T00:57:17.046Z,88.16654854750624
2023-03-11T01:01:18.848Z,87.87722369623556
2023-03-11T01:04:17.018Z,87.42640346468208
2023-03-11T01:07:16.676Z,87.66237640600558
2023-03-11T01:11:16.939Z,88.17541407644215
2023-03-11T01:14:17.826Z,88.1514143177798
2023-03-11T01:17:17.301Z,87.99795091825709
2023-03-11T01:21:16.848Z,87.98925449140674
2023-03-11T01:24:17.360Z,87.59552599836704
2023-03-11T01:27:17.172Z,87.2430751648377
2023-03-11T01:31:17.045Z,86.57474495295995
2023-03-11T01:34:17.397Z,86.421551175925
2023-03-11T01:37:17.589Z,86.91375077194253
2023-03-11T01:41:16.940Z,87.13632083510873
2023-03-11T01:44:16.906Z,87.25036858103412
2023-03-11T01:47:36.952Z,87.28101564836818
2023-03-11T01:51:20.729Z,87.19453205110247
2023-03-11T01:54:21.328Z,87.59700364029452
2023-03-11T01:57:16.850Z,87.62684326778266
2023-03-11T02:01:16.808Z,87.56843450046433
2023-03-11T02:04:17.773Z,87.43111746190992
2023-03-11T02:07:17.314Z,86.88215653986815
2023-03-11T02:11:21.509Z,87.10293064395229
2023-03-11T02:14:17.281Z,87.43299734323844
2023-03-11T02:17:17.472Z,87.79149267256834
2023-03-11T02:21:24.200Z,87.82980377222282
2023-03-11T02:24:22.471Z,88.08180941177167
2023-03-11T02:27:19.317Z,87.94418146508177
2023-03-11T02:31:16.835Z,87.59679309870818
2023-03-11T02:34:23.616Z,87.75416833203109
2023-03-11T02:37:17.742Z,88.07028594416522
2023-03-11T02:41:16.998Z,87.49324121769486
2023-03-11T02:44:17.261Z,87.04425287802933
2023-03-11T02:47:17.244Z,87.54282951320913
2023-03-11T02:51:16.862Z,87.4284190842676
2023-03-11T02:54:17.483Z,88.01851392336981
2023-03-11T02:57:17.059Z,88.3815079730966
2023-03-11T03:01:17.184Z,88.20304437432934
2023-03-11T03:04:17.524Z,88.09911530355916
2023-03-11T03:07:17.303Z,88.58443360762807
2023-03-11T03:11:17.026Z,88.6927560605515
2023-03-11T03:14:17.294Z,88.71288812471177
2023-03-11T03:17:17.297Z,88.4661962144379
2023-03-11T03:21:16.571Z,88.42842384357925
2023-03-11T03:24:17.057Z,88.10406964500646
2023-03-11T03:27:17.021Z,88.23243896139948
2023-03-11T03:31:16.357Z,88.49232296243981
2023-03-11T03:34:16.579Z,88.60690678346761
2023-03-11T03:37:16.504Z,88.4752084278789
2023-03-11T03:41:17.072Z,87.88494334462999
2023-03-11T03:44:17.430Z,87.97642101550804
2023-03-11T03:47:17.533Z,87.89294539139641
2023-03-11T03:51:17.176Z,87.89272168099069
2023-03-11T03:54:17.135Z,87.91489935956314
2023-03-11T03:57:17.249Z,87.42961721143936
2023-03-11T04:01:16.492Z,87.35837062866881
2023-03-11T04:04:16.953Z,87.48584082398921
2023-03-11T04:07:16.722Z,87.96613167703171
2023-03-11T04:11:17.105Z,87.98378176981545
2023-03-11T04:14:17.209Z,88.18969329486347
2023-03-11T04:17:18.287Z,88.53385892219711
2023-03-11T04:21:16.181Z,88.69726629331699
2023-03-11T04:24:16.724Z,88.76684908052378
2023-03-11T04:27:16.601Z,89.13667286125786
2023-03-11T04:31:16.621Z,88.99812619310575
2023-03-11T04:34:16.659Z,89.04805764187226
2023-03-11T04:37:16.768Z,89.30640561183075
2023-03-11T04:41:16.162Z,88.94773560999762
2023-03-11T04:44:16.956Z,88.91380698071202
2023-03-11T04:47:16.972Z,88.93648036522418
2023-03-11T04:51:17.197Z,88.75836226881526
2023-03-11T04:54:17.154Z,88.53699580999626
2023-03-11T04:57:16.997Z,87.91522248548947
2023-03-11T05:01:16.618Z,88.57987788896324
2023-03-11T05:04:17.262Z,88.5042870376464
2023-03-11T05:07:17.026Z,88.30372433730423
2023-03-11T05:11:16.404Z,88.6010727890558
2023-03-11T05:14:16.783Z,88.59890914808592
2023-03-11T05:17:19.140Z,88.14355001185653
2023-03-11T05:21:16.490Z,87.53814807466435
2023-03-11T05:24:16.770Z,87.67356879791976
2023-03-11T05:27:18.486Z,87.49057612605719
2023-03-11T05:31:16.504Z,87.03151227265336
2023-03-11T05:34:17.283Z,87.21067634292152
2023-03-11T05:37:17.142Z,87.34723241190349
2023-03-11T05:41:20.112Z,87.79341425558093
2023-03-11T05:44:20.214Z,88.12724450826305
2023-03-11T05:47:20.067Z,88.60990416881977
2023-03-11T05:51:16.662Z,89.27201681060909
2023-03-11T05:54:17.115Z,89.44641275002566
2023-03-11T05:57:17.291Z,89.30781765887868
2023-03-11T06:01:18.439Z,89.03642674996787
2023-03-11T06:04:17.297Z,89.48126357481974
2023-03-11T06:07:17.518Z,89.46652223515645
2023-03-11T06:11:17.542Z,90.02681814384668
2023-03-11T06:14:17.315Z,90.9056710841588
2023-03-11T06:17:17.157Z,90.76778974199934
2023-03-11T06:21:19.804Z,90.56955659310204
2023-03-11T06:24:17.430Z,90.37213413628439
2023-03-11T06:27:17.437Z,90.40996101575982
2023-03-11T06:31:19.607Z,90.75012205723499
2023-03-11T06:34:17.562Z,91.09151610628403
2023-03-11T06:37:17.879Z,91.46768980746413
2023-03-11T06:41:16.650Z,92.29949868793913
2023-03-11T06:44:17.286Z,92.26468070141027
2023-03-11T06:47:16.926Z,92.13205041982043
2023-03-11T06:51:17.889Z,91.77449619700967
2023-03-11T06:54:17.173Z,91.65140341445263
2023-03-11T06:57:17.182Z,91.82463400696423
2023-03-11T07:01:19.554Z,91.86881924971586
2023-03-11T07:04:17.173Z,91.29841426261206
2023-03-11T07:07:17.665Z,91.06495393151474
2023-03-11T07:11:19.076Z,90.27976585601239
2023-03-11T07:14:16.680Z,90.32213834554138
2023-03-11T07:17:16.488Z,90.08911115123585
2023-03-11T07:21:19.168Z,89.98105506807914
2023-03-11T07:24:17.861Z,89.76470486792984
2023-03-11T07:27:17.563Z,89.75529752309859
2023-03-11T07:31:19.728Z,89.74229034928989
2023-03-11T07:34:16.725Z,89.71768300801793
2023-03-11T07:37:16.557Z,89.79700315765086
2023-03-11T07:41:16.751Z,89.62544770325052
2023-03-11T07:44:17.513Z,90.01070385455999
2023-03-11T07:47:17.022Z,91.86192649973461
2023-03-11T07:51:18.664Z,92.41091729636877
2023-03-11T07:54:16.824Z,92.16069699051016
2023-03-11T07:57:17.979Z,91.94555288993357
2023-03-11T08:01:18.669Z,92.54721581999532
2023-03-11T08:04:17.596Z,92.57745576385837
2023-03-11T08:07:17.128Z,92.82049474259945
2023-03-11T08:11:17.954Z,93.77439922496319
2023-03-11T08:14:17.377Z,94.10818552145912
2023-03-11T08:17:17.415Z,93.37449863154563
2023-03-11T08:21:19.397Z,93.35948546159703
2023-03-11T08:24:17.552Z,93.34867685358095
2023-03-11T08:27:17.422Z,93.31433694727694
2023-03-11T08:31:19.375Z,94.35658355990512
2023-03-11T08:34:17.520Z,93.583230742121
2023-03-11T08:37:17.382Z,91.73471568093898
2023-03-11T08:41:16.829Z,90.3692022916286
2023-03-11T08:44:17.370Z,89.91281680892664
2023-03-11T08:47:17.155Z,89.73126016584361
2023-03-11T08:51:16.279Z,88.77068107434991
2023-03-11T08:54:16.539Z,88.87907596832075
2023-03-11T08:57:16.466Z,88.69765711568539
2023-03-11T09:01:18.120Z,89.0348664388943
2023-03-11T09:04:17.652Z,89.84317034556797
2023-03-11T09:07:18.047Z,90.40437434585552
2023-03-11T09:11:18.218Z,90.23076028247296
2023-03-11T09:14:17.422Z,90.40680262067264
2023-03-11T09:17:17.845Z,90.47468762924633
2023-03-11T09:21:17.373Z,90.62535027699299
2023-03-11T09:24:17.416Z,90.25627185916224
2023-03-11T09:27:17.495Z,90.81500989864549
2023-03-11T09:31:17.218Z,91.97830190542379
2023-03-11T09:34:16.636Z,92.75707125560004
2023-03-11T09:37:16.534Z,93.29720280067944
2023-03-11T09:41:26.623Z,94.05816444854557
2023-03-11T09:44:23.269Z,94.23701303966203
2023-03-11T09:47:36.194Z,93.87464332028576
2023-03-11T09:51:20.123Z,93.58817337353976
2023-03-11T09:54:17.986Z,93.57304380602652
2023-03-11T09:57:21.570Z,93.92645001865165
2023-03-11T10:01:22.298Z,94.8906644526561
2023-03-11T10:04:22.891Z,94.89212989153755
2023-03-11T10:07:24.841Z,94.830971657599
2023-03-11T10:11:32.372Z,94.8842538710581
2023-03-11T10:14:33.504Z,95.28204118145206
2023-03-11T10:17:35.966Z,94.84381765048998
2023-03-11T10:21:30.191Z,94.51618358450823
2023-03-11T10:24:41.509Z,94.10615988663878
2023-03-11T10:27:21.926Z,93.45970688020998
2023-03-11T10:31:26.509Z,93.1320371603939
2023-03-11T10:34:22.514Z,93.23416498445083
2023-03-11T10:37:20.535Z,94.05522979962365
2023-03-11T10:41:23.035Z,94.76965540629213
2023-03-11T10:44:22.467Z,94.89933979305026
2023-03-11T10:47:19.106Z,94.74985700600035
2023-03-11T10:51:21.214Z,95.12854356621708
2023-03-11T10:54:28.368Z,95.38600731045345
2023-03-11T10:57:23.304Z,95.93914060376063
2023-03-11T11:01:18.158Z,96.70752016253591
2023-03-11T11:04:28.051Z,97.56580560046115
2023-03-11T11:07:28.934Z,97.64057768817737
2023-03-11T11:11:22.791Z,98.88747263420156
2023-03-11T11:14:16.559Z,99.7824996823814
2023-03-11T11:17:19.940Z,99.21992538897086
2023-03-11T11:21:28.120Z,96.10660288479615
2023-03-11T11:24:23.232Z,95.01449877908885
2023-03-11T11:27:20.103Z,94.83731266221584
2023-03-11T11:31:23.371Z,95.63446741765831
2023-03-11T11:34:30.777Z,95.16596052705052
2023-03-11T11:37:17.050Z,93.42329766036055
2023-03-11T11:41:19.937Z,93.3942906258865
2023-03-11T11:44:21.415Z,92.93648751239738
2023-03-11T11:47:19.480Z,91.47590767670741
2023-03-11T11:51:21.161Z,91.41203102577204
2023-03-11T11:54:27.049Z,91.31282199942389
2023-03-11T11:57:20.632Z,89.57635460291884
2023-03-11T12:01:23.269Z,89.4390048347076
2023-03-11T12:04:54.025Z,89.55989157806353
2023-03-11T12:07:38.355Z,88.74445491557022
2023-03-11T12:11:23.198Z,89.52979709239038
2023-03-11T12:14:26.043Z,88.9778264717076
2023-03-11T12:17:21.575Z,88.25214747838915
2023-03-11T12:21:32.818Z,88.59259883606417
2023-03-11T12:24:34.932Z,88.95580032341218
2023-03-11T12:27:21.844Z,88.56601641040169
2023-03-11T12:31:17.802Z,87.84409219861173
2023-03-11T12:34:21.402Z,87.81789988056047
2023-03-11T12:37:22.558Z,87.1789031137028
2023-03-11T12:41:34.629Z,87.26656973172828
2023-03-11T12:44:26.562Z,86.93786616664069
2023-03-11T12:47:21.695Z,86.64325882733463
2023-03-11T12:52:01.797Z,87.02174530556783
2023-03-11T12:54:27.749Z,86.06308788390054
2023-03-11T12:57:33.042Z,85.63752718604267
2023-03-11T13:01:57.311Z,85.13234142643935
2023-03-11T13:04:29.551Z,84.72811277833412
2023-03-11T13:07:39.191Z,84.8624018000155
2023-03-11T13:11:49.105Z,85.02843003158273
2023-03-11T13:14:26.197Z,85.12908139637578
2023-03-11T13:17:24.413Z,85.0127947302629
2023-03-11T13:21:37.964Z,85.66944664740961
2023-03-11T13:24:50.955Z,85.6599635199737
2023-03-11T13:27:33.054Z,85.9485780655509
2023-03-11T13:31:33.452Z,86.25974652682771
2023-03-11T13:34:27.853Z,84.54976521200648
2023-03-11T13:37:29.209Z,84.44138401684934
2023-03-11T13:41:21.873Z,84.15786543030974
2023-03-11T13:44:27.952Z,83.50349207570436
2023-03-11T13:47:19.047Z,83.7455806356638
2023-03-11T13:51:21.365Z,84.51629144009587
2023-03-11T13:54:32.089Z,83.87172884795363
2023-03-11T13:57:28.091Z,83.65225592783526
2023-03-11T14:01:17.908Z,83.19771976345642
2023-03-11T14:04:23.188Z,83.36127641950542
2023-03-11T14:07:24.749Z,84.26941915180598
2023-03-11T14:11:17.219Z,84.47239233215068
2023-03-11T14:14:54.134Z,83.90614457626889
2023-03-11T14:17:19.459Z,83.68653621931749
2023-03-11T14:21:19.359Z,82.90928984904954
2023-03-11T14:24:18.820Z,82.82213567970335
2023-03-11T14:27:16.832Z,82.97241588424271
2023-03-11T14:31:29.953Z,82.40867038663865
2023-03-11T14:34:18.928Z,82.57257530212344
2023-03-11T14:37:25.710Z,82.15233141978622
2023-03-11T14:41:16.694Z,82.2998070940034
2023-03-11T14:44:17.586Z,82.66483534679959
2023-03-11T14:47:22.111Z,83.04841948009799
2023-03-11T14:51:23.317Z,82.57629795551527
2023-03-11T14:54:23.210Z,83.32783260355636
2023-03-11T14:57:23.728Z,83.73336968188546
2023-03-11T15:01:21.519Z,83.02301259552344
2023-03-11T15:04:28.448Z,82.41074421026573
2023-03-11T15:07:19.316Z,82.43115311275176
2023-03-11T15:11:20.663Z,82.76801329265463
2023-03-11T15:14:22.590Z,83.06497519387
2023-03-11T15:17:33.967Z,82.92411214690351
2023-03-11T15:21:20.784Z,82.23265675368566
2023-03-11T15:24:21.273Z,82.45348314050011
2023-03-11T15:27:27.658Z,81.75110850162444
2023-03-11T15:31:27.776Z,81.8728321953086
2023-03-11T15:34:27.631Z,81.61378737779854
2023-03-11T15:37:20.042Z,81.86113567258028
2023-03-11T15:41:16.940Z,81.5108813535873
2023-03-11T15:44:25.209Z,81.97277270834303
2023-03-11T15:47:18.975Z,81.45493886487417
2023-03-11T15:51:18.871Z,81.81973722471398
2023-03-11T15:54:16.744Z,81.48773737567019
2023-03-11T15:57:23.223Z,80.54071553023314
2023-03-11T16:01:16.338Z,81.37209943152764
2023-03-11T16:04:18.556Z,81.55787234039057
2023-03-11T16:07:18.468Z,81.88778089973691
2023-03-11T16:11:16.765Z,81.63769626848237
2023-03-11T16:14:20.632Z,81.83393812487274
2023-03-11T16:17:16.740Z,81.88294306617799
2023-03-11T16:21:22.376Z,82.32663365870233
2023-03-11T16:24:22.322Z,81.89078008725595
2023-03-11T16:27:19.959Z,81.67451731018147
2023-03-11T16:31:16.736Z,81.37554468211793
2023-03-11T16:34:16.819Z,81.31429092521911
2023-03-11T16:37:17.708Z,81.30498605026897
2023-03-11T16:41:17.580Z,81.61829157319342
2023-03-11T16:44:17.404Z,81.08213428827364
2023-03-11T16:47:17.958Z,81.33953465264332
2023-03-11T16:51:16.840Z,81.3677332731296
2023-03-11T16:54:17.358Z,82.67437673797384
2023-03-11T16:57:19.884Z,81.66724895491426
2023-03-11T17:01:21.860Z,81.51155681037086
2023-03-11T17:04:17.686Z,81.57475159397849
2023-03-11T17:07:18.766Z,81.15182699765587
2023-03-11T17:11:21.238Z,81.02465457395635
2023-03-11T17:14:18.498Z,81.49765722906903
2023-03-11T17:17:19.706Z,81.57963343085581
2023-03-11T17:21:18.269Z,81.37864342565949
2023-03-11T17:24:17.820Z,81.299147586775
2023-03-11T17:27:18.751Z,81.25242059058782
2023-03-11T17:31:20.313Z,81.79104061163605
2023-03-11T17:34:19.411Z,81.5749344456067
2023-03-11T17:37:18.972Z,81.34064040756041
2023-03-11T17:41:21.588Z,82.16213081163623
2023-03-11T17:44:21.838Z,82.15505770569197
2023-03-11T17:47:20.759Z,82.04878250637513
2023-03-11T17:51:19.865Z,81.74977164365218
2023-03-11T17:54:17.344Z,81.85624739412371
2023-03-11T17:57:17.342Z,82.5605326876191
2023-03-11T18:01:20.087Z,82.1657066137194
2023-03-11T18:04:16.979Z,81.96697368202
2023-03-11T18:07:18.148Z,82.33779716843654
2023-03-11T18:11:20.949Z,82.16775935078508
2023-03-11T18:14:17.804Z,81.47209552777117
2023-03-11T18:17:18.504Z,81.46820118623371
2023-03-11T18:21:18.568Z,82.44688056327624
2023-03-11T18:24:19.212Z,82.50737834910333
2023-03-11T18:27:21.905Z,82.86694392492109
2023-03-11T18:31:20.630Z,83.59011118646423
2023-03-11T18:34:16.832Z,83.71993949185202
2023-03-11T18:37:16.834Z,83.37564820413873
2023-03-11T18:41:17.500Z,82.63619595311671
2023-03-11T18:44:17.646Z,82.59543555222689
2023-03-11T18:47:17.623Z,82.45473851070868
2023-03-11T18:51:16.814Z,81.3418220780274
2023-03-11T18:54:17.194Z,81.56102226999121
2023-03-11T18:57:17.180Z,81.99985397854887
2023-03-11T19:01:18.757Z,81.50770351830067
2023-03-11T19:04:16.914Z,81.95045418494423
2023-03-11T19:07:17.016Z,81.16369044802786
2023-03-11T19:11:19.096Z,80.96953621613413
2023-03-11T19:14:17.210Z,81.43836053134757
2023-03-11T19:17:18.652Z,81.9147400421153
2023-03-11T19:21:19.488Z,81.52768139183293
2023-03-11T19:24:19.787Z,81.98601640194305
2023-03-11T19:27:18.548Z,81.94760105821935
2023-03-11T19:31:16.833Z,82.23462307165691
2023-03-11T19:34:16.880Z,82.51375606612181
2023-03-11T19:37:17.941Z,82.764495631101
2023-03-11T19:41:18.227Z,82.96369887327212
2023-03-11T19:44:16.406Z,83.19380214097269
2023-03-11T19:47:16.343Z,83.26498924144191
2023-03-11T19:51:18.504Z,83.73791452704816
2023-03-11T19:54:17.750Z,83.82379220574701
2023-03-11T19:57:18.696Z,83.5321433926009
2023-03-11T20:01:19.415Z,83.89783706831973
2023-03-11T20:04:17.327Z,84.03724554458923
2023-03-11T20:07:17.041Z,84.49248591890284
2023-03-11T20:11:16.707Z,84.64364245764698
2023-03-11T20:14:16.739Z,84.5694493758254
2023-03-11T20:17:16.950Z,84.60026904844007
2023-03-11T20:21:17.010Z,83.74301830502772
2023-03-11T20:24:16.906Z,83.53879788419418
2023-03-11T20:27:17.008Z,83.37066258181949
2023-03-11T20:31:18.945Z,83.55209010668754
2023-03-11T20:34:17.045Z,83.84629237049703
2023-03-11T20:37:16.970Z,83.86746312013457
2023-03-11T20:41:17.564Z,83.84261670111358
2023-03-11T20:44:19.495Z,84.11970447647272
2023-03-11T20:47:17.916Z,84.3299543044399
2023-03-11T20:51:18.366Z,84.21955942493179
2023-03-11T20:54:17.298Z,84.5199119225802
2023-03-11T20:57:17.473Z,84.52494929800253
2023-03-11T21:01:19.690Z,84.18510483652284
2023-03-11T21:04:17.953Z,84.07365346866806
2023-03-11T21:07:17.354Z,84.06473321730162
2023-03-11T21:11:17.517Z,84.08196097523127
2023-03-11T21:14:18.615Z,84.26402428162447
2023-03-11T21:17:17.935Z,84.08820209137285
2023-03-11T21:21:18.871Z,84.08881363616933
2023-03-11T21:24:17.387Z,84.66909509420162
2023-03-11T21:27:17.395Z,85.02704487311617
2023-03-11T21:31:19.012Z,85.92685172185976
2023-03-11T21:34:17.371Z,86.6308592912661
2023-03-11T21:37:17.423Z,87.2931105954659
2023-03-11T21:41:18.303Z,88.16095150329953
2023-03-11T21:44:17.337Z,88.39734506152584
2023-03-11T21:47:17.142Z,88.12317333535164
2023-03-11T21:51:18.210Z,87.8928419684728
2023-03-11T21:54:16.961Z,87.59389736483621
2023-03-11T21:57:16.938Z,87.55709827649761
2023-03-11T22:01:16.604Z,87.68295397006683
2023-03-11T22:04:16.852Z,88.39050390936038
2023-03-11T22:07:16.934Z,88.83840061944065
2023-03-11T22:11:19.504Z,89.6087706639799
2023-03-11T22:14:17.504Z,90.2467403639817
2023-03-11T22:17:17.578Z,90.15491171160691
2023-03-11T22:21:17.763Z,90.46469648429587
2023-03-11T22:24:16.647Z,90.45844688279956
2023-03-11T22:27:16.829Z,90.52442536851007
2023-03-11T22:31:19.042Z,91.00559948764412
2023-03-11T22:34:17.283Z,90.96404983587185
2023-03-11T22:37:17.709Z,91.06571616302281
2023-03-11T22:41:19.818Z,91.10531690411919
2023-03-11T22:44:17.349Z,91.25426245344293
2023-03-11T22:47:17.420Z,91.00767178105127
2023-03-11T22:51:16.992Z,91.10592347087233
2023-03-11T22:54:17.351Z,91.20164854448613
2023-03-11T22:57:17.052Z,91.49578009738998
2023-03-11T23:01:17.813Z,91.35443345259628
2023-03-11T23:04:16.944Z,91.33608639027288
2023-03-11T23:07:16.847Z,91.27945443098501
2023-03-11T23:11:19.153Z,91.1667365619204
2023-03-11T23:14:17.726Z,91.21646331875718
2023-03-11T23:17:16.921Z,91.35487884402312
2023-03-11T23:21:19.131Z,91.35084906602596
2023-03-11T23:24:17.264Z,91.08248985790067
2023-03-11T23:27:17.094Z,91.26285775172437
2023-03-11T23:31:18.501Z,91.35180787403192
2023-03-11T23:34:17.321Z,91.04339049539813
2023-03-11T23:37:17.837Z,91.16573220727061
2023-03-11T23:41:19.376Z,90.99918377854239
2023-03-11T23:44:17.547Z,90.9295126601949
2023-03-11T23:47:17.550Z,91.3964891131536
2023-03-11T23:51:16.494Z,91.20376644738647
2023-03-11T23:54:17.259Z,91.18047735542864
2023-03-11T23:57:17.041Z,91.26043112966798
